Flight Track Log - Related Links

Times and Time Zones

All times are in EDT time to prevent confusion due to time zone crossing. See the GJS3615 flight status page for this flight to view local times or setup timezone preferences in your user account.

Time Position Orientation Groundspeed Altitude Reporting Facility
EDT Latitude Longitude Course Direction KTS MPH feet Rate Location/Type
Mon 10:10:41 AM 41.9667 -87.8833 202° Southwest 153 176 1,900  Level Chicago TRACON
Mon 10:11:36 AM 41.9333 -87.8333 132° Southeast 189 217 4,000 2,094 Climbing Chicago TRACON
Mon 10:13:00 AM 41.7616 -87.5678 159° South  Level Estimated
Mon 10:13:10 AM 41.8436 -87.7931 162° South 258 297 7,100  Level Chicago Center
Mon 10:14:00 AM 41.6880 -87.4553 153° Southeast  Level Estimated
Mon 10:14:12 AM 41.7686 -87.7889 178° South 272 313 10,300  Level Chicago Center
Mon 10:15:00 AM 41.5845 -87.5111 202° Southwest  Level FlightAware Approximate
Mon 10:15:14 AM 41.6956 -87.7608 164° South 276 318 13,200  Level Chicago Center
Mon 10:16:16 AM 41.6175 -87.7064 152° Southeast 313 360 14,700 1,742 Climbing Chicago Center
Mon 10:17:18 AM 41.5303 -87.6464 153° Southeast 345 397 16,800 2,129 Climbing Chicago Center
Mon 10:18:20 AM 41.4231 -87.5753 154° Southeast 357 411 19,100 2,081 Climbing Chicago Center
Mon 10:19:22 AM 41.3211 -87.5553 172° South 370 426 21,100 1,756 Climbing Chicago Center
Mon 10:20:23 AM 41.2161 -87.5367 172° South 376 433 22,700 1,512 Climbing Chicago Center
Mon 10:21:25 AM 41.1075 -87.5089 169° South 392 451 24,200 1,452 Climbing Chicago Center
Mon 10:22:27 AM 40.9967 -87.4789 168° South 403 464 25,700 1,500 Climbing Chicago Center
Mon 10:23:29 AM 40.8844 -87.4486 168° South 410 472 27,300 1,258 Climbing Chicago Center
Mon 10:24:31 AM 40.7694 -87.4189 169° South 420 483 28,300 1,065 Climbing Chicago Center
Mon 10:25:33 AM 40.6278 -87.3792 168° South 432 497 29,500 1,355 Climbing Chicago Center
Mon 10:26:35 AM 40.5086 -87.3469 168° South 435 501 31,100 1,548 Climbing Chicago Center
Mon 10:27:37 AM 40.3983 -87.2911 159° South 431 496 32,700 1,355 Climbing Chicago Center
Mon 10:28:39 AM 40.3031 -87.1981 143° Southeast 428 493 33,900 919 Climbing Chicago Center
Mon 10:29:41 AM 40.2039 -87.1047 144° Southeast 437 503 34,600 677 Climbing Chicago Center
Mon 10:30:43 AM 40.1044 -87.0119 144° Southeast 442 509 35,300 729 Climbing Chicago Center
Mon 10:31:28 AM 40.0167 -86.9303 145° Southeast 445 512 35,900 729 Climbing Indianapolis Center
Mon 10:32:30 AM 39.9111 -86.8394 147° Southeast 451 519 36,600 677 Climbing Indianapolis Center
Mon 10:33:32 AM 39.8197 -86.7261 136° Southeast 463 533 37,300 662 Climbing Indianapolis Center
Mon 10:34:46 AM 39.7400 -86.5961 129° Southeast 458 527 38,100 706 Climbing Indianapolis Center
Mon 10:35:48 AM 39.6472 -86.4406 128° Southeast 453 521 38,900 435 Climbing Indianapolis Center
Mon 10:36:50 AM 39.5517 -86.2853 129° Southeast 454 522 39,000 48 Climbing Indianapolis Center
Mon 10:37:52 AM 39.4711 -86.1517 128° Southeast 465 535 39,000  Level Indianapolis Center
Mon 10:38:54 AM 39.3881 -86.0175 129° Southeast 472 543 39,000  Level Indianapolis Center
Mon 10:39:56 AM 39.3039 -85.8794 128° Southeast 482 555 39,000  Level Indianapolis Center
Mon 10:40:58 AM 39.2200 -85.7417 128° Southeast 484 557 39,000  Level Indianapolis Center
Mon 10:41:59 AM 39.1322 -85.6011 129° Southeast 497 572 39,000  Level Indianapolis Center
Mon 10:43:01 AM 39.0475 -85.4647 129° Southeast 488 562 39,000  Level Indianapolis Center
Mon 10:44:03 AM 38.9619 -85.3272 129° Southeast 489 563 39,000 -290 Level Indianapolis Center
Mon 10:45:05 AM 38.8775 -85.1928 129° Southeast 484 557 38,400 -484 Descending Indianapolis Center
Mon 10:46:07 AM 38.7756 -85.0281 128° Southeast 488 562 38,000 -195 Descending Indianapolis Center
Mon 10:47:08 AM 38.6914 -84.8972 129° Southeast 476 548 38,000 -49 Level Indianapolis Center
Mon 10:48:10 AM 38.6072 -84.7636 129° Southeast 468 539 37,900 -484 Descending Indianapolis Center
Mon 10:49:12 AM 38.5233 -84.6364 130° Southeast 468 539 37,000 -435 Descending Indianapolis Center
Mon 10:50:14 AM 38.4408 -84.5067 129° Southeast 470 541 37,000 -435 Level Indianapolis Center
Mon 10:51:16 AM 38.3600 -84.3783 129° Southeast 466 536 36,100 -927 Descending Indianapolis Center
Mon 10:52:17 AM 38.2761 -84.2486 129° Southeast 473 544 35,100 -976 Descending Indianapolis Center
Mon 10:53:19 AM 38.1917 -84.1169 129° Southeast 478 550 34,100 -1,016 Descending Indianapolis Center
Mon 10:54:21 AM 38.0908 -83.9633 130° Southeast 482 555 33,000 -532 Descending Indianapolis Center
Mon 10:55:23 AM 38.0056 -83.8353 130° Southeast 478 550 33,000  Level Indianapolis Center
Mon 10:56:24 AM 37.9267 -83.7089 128° Southeast 464 534 33,000  Level Indianapolis Center
Mon 10:57:26 AM 37.8464 -83.5889 130° Southeast 451 519 33,000  Level Indianapolis Center
Mon 10:58:28 AM 37.7675 -83.4717 130° Southeast 441 507 33,000  Level Indianapolis Center
Mon 10:59:30 AM 37.6886 -83.3542 130° Southeast 435 501 33,000 -194 Level Indianapolis Center
Mon 11:00:32 AM 37.5986 -83.2181 130° Southeast 434 499 32,600 -683 Descending Indianapolis Center
Mon 11:01:33 AM 37.5167 -83.0969 130° Southeast 445 512 31,600 -976 Descending Indianapolis Center
Mon 11:02:35 AM 37.4303 -82.9683 130° Southeast 467 537 30,600 -968 Descending Indianapolis Center
Mon 11:03:37 AM 37.3419 -82.8358 130° Southeast 484 557 29,600 -968 Descending Indianapolis Center
Mon 11:04:39 AM 37.2547 -82.7067 130° Southeast 483 556 28,600 -1,024 Descending Indianapolis Center
Mon 11:05:40 AM 37.1708 -82.5828 130° Southeast 470 541 27,500 -780 Descending Indianapolis Center
Mon 11:06:42 AM 37.0908 -82.4672 131° Southeast 443 510 27,000 -242 Descending Indianapolis Center
Mon 11:07:44 AM 37.0164 -82.3581 130° Southeast 414 476 27,000  Level Indianapolis Center
Mon 11:08:45 AM 36.9417 -82.2439 129° Southeast 420 483 27,000 -279 Level Indianapolis Center
Mon 11:09:53 AM 36.8667 -82.0928 122° Southeast 429 494 26,400 -844 Descending Atlanta Center
Mon 11:10:53 AM 36.7978 -81.9622 123° Southeast 446 513 25,200 -1,250 Descending Atlanta Center
Mon 11:11:53 AM 36.7372 -81.8422 122° Southeast 429 494 23,900 -1,250 Descending Atlanta Center
Mon 11:12:53 AM 36.6789 -81.7300 123° Southeast 396 456 22,700 -1,200 Descending Atlanta Center
Mon 11:13:53 AM 36.6206 -81.6178 123° Southeast 390 449 21,500 -1,250 Descending Atlanta Center
Mon 11:14:53 AM 36.5575 -81.4931 122° Southeast 385 443 20,200 -1,300 Descending Atlanta Center
Mon 11:15:53 AM 36.4989 -81.3814 123° Southeast 380 437 18,900 -1,150 Descending Atlanta Center
Mon 11:16:53 AM 36.4400 -81.2697 123° Southeast 388 447 17,900 -1,109 Descending Atlanta Center
Mon 11:17:52 AM 36.3853 -81.1606 122° Southeast 383 441 16,700 -1,250 Descending Atlanta Center
Mon 11:18:53 AM 36.3306 -81.0544 123° Southeast 378 435 15,400 -1,289 Descending Atlanta Center
Mon 11:19:53 AM 36.2739 -80.9508 124° Southeast 367 422 14,100 -1,200 Descending Atlanta Center
Mon 11:20:53 AM 36.2236 -80.8575 124° Southeast 367 422 13,000 -1,250 Descending Atlanta Center
Mon 11:21:53 AM 36.1686 -80.7569 124° Southeast 362 417 11,600 -1,000 Descending Atlanta Center
Mon 11:22:53 AM 36.1281 -80.6453 114° Southeast 362 417 11,000 -300 Descending Atlanta Center
Mon 11:23:53 AM 36.1122 -80.5253 99° East 347 399 11,000 -150 Level Atlanta Center
Mon 11:24:53 AM 36.0881 -80.4108 105° East 347 399 10,700 -900 Descending Atlanta Center
Mon 11:25:53 AM 36.0517 -80.3069 113° Southeast 323 372 9,200 -1,600 Descending Atlanta Center
Mon 11:26:53 AM 36.0114 -80.2242 121° Southeast 295 339 7,500 -1,900 Descending Atlanta Center
Mon 11:27:53 AM 35.9736 -80.1489 122° Southeast 272 313 5,400 -2,100 Descending Atlanta Center
Mon 11:28:53 AM 35.9756 -80.0769 88° East 217 250 3,300 -1,250 Descending Atlanta Center
Mon 11:29:53 AM 36.0242 -80.0283 39° Northeast 208 239 2,900 -400 Descending Atlanta Center

Login

Don't have an account? Register now (free) for customized features, flight alerts, and more!